sensor_id;sensor_type;location;lat;lon;timestamp;P1;durP1;ratioP1;P2;durP2;ratioP2
45296;SDS011;31040;51.622;10.420;2023-09-18T00:01:09;6.60;;;5.30;;
45296;SDS011;31040;51.622;10.420;2023-09-18T00:03:37;6.20;;;4.97;;
45296;SDS011;31040;51.622;10.420;2023-09-18T00:06:04;5.93;;;5.30;;
45296;SDS011;31040;51.622;10.420;2023-09-18T00:08:32;7.13;;;5.07;;
45296;SDS011;31040;51.622;10.420;2023-09-18T00:10:59;5.90;;;5.28;;
45296;SDS011;31040;51.622;10.420;2023-09-18T00:13:27;5.60;;;5.03;;
45296;SDS011;31040;51.622;10.420;2023-09-18T00:15:55;6.35;;;5.50;;
45296;SDS011;31040;51.622;10.420;2023-09-18T00:18:26;6.95;;;5.30;;
45296;SDS011;31040;51.622;10.420;2023-09-18T00:20:54;6.43;;;5.28;;
45296;SDS011;31040;51.622;10.420;2023-09-18T00:23:21;5.30;;;4.80;;
45296;SDS011;31040;51.622;10.420;2023-09-18T00:25:48;7.53;;;5.03;;
45296;SDS011;31040;51.622;10.420;2023-09-18T00:28:16;5.32;;;4.72;;
45296;SDS011;31040;51.622;10.420;2023-09-18T00:30:47;8.50;;;5.43;;
45296;SDS011;31040;51.622;10.420;2023-09-18T00:33:16;5.72;;;5.22;;
45296;SDS011;31040;51.622;10.420;2023-09-18T00:35:49;6.53;;;5.40;;
45296;SDS011;31040;51.622;10.420;2023-09-18T00:38:17;5.75;;;5.25;;
45296;SDS011;31040;51.622;10.420;2023-09-18T00:40:46;6.97;;;5.10;;
45296;SDS011;31040;51.622;10.420;2023-09-18T00:43:13;5.70;;;5.20;;
45296;SDS011;31040;51.622;10.420;2023-09-18T00:45:45;5.97;;;5.38;;
45296;SDS011;31040;51.622;10.420;2023-09-18T00:48:13;8.13;;;5.65;;
45296;SDS011;31040;51.622;10.420;2023-09-18T00:50:42;6.60;;;5.97;;
45296;SDS011;31040;51.622;10.420;2023-09-18T00:53:11;6.90;;;6.20;;
45296;SDS011;31040;51.622;10.420;2023-09-18T00:55:40;6.85;;;5.32;;
45296;SDS011;31040;51.622;10.420;2023-09-18T00:58:08;7.47;;;5.60;;
45296;SDS011;31040;51.622;10.420;2023-09-18T01:00:35;6.72;;;5.32;;
45296;SDS011;31040;51.622;10.420;2023-09-18T01:03:04;6.03;;;5.30;;
45296;SDS011;31040;51.622;10.420;2023-09-18T01:05:32;5.70;;;4.93;;
45296;SDS011;31040;51.622;10.420;2023-09-18T01:08:00;5.93;;;5.30;;
45296;SDS011;31040;51.622;10.420;2023-09-18T01:10:34;6.32;;;5.50;;
45296;SDS011;31040;51.622;10.420;2023-09-18T01:13:10;6.47;;;5.47;;
45296;SDS011;31040;51.622;10.420;2023-09-18T01:15:42;6.68;;;5.97;;
45296;SDS011;31040;51.622;10.420;2023-09-18T01:18:11;7.30;;;6.10;;
45296;SDS011;31040;51.622;10.420;2023-09-18T01:20:40;6.30;;;5.70;;
45296;SDS011;31040;51.622;10.420;2023-09-18T01:23:07;7.20;;;6.15;;
45296;SDS011;31040;51.622;10.420;2023-09-18T01:25:35;7.45;;;6.57;;
45296;SDS011;31040;51.622;10.420;2023-09-18T01:28:03;6.25;;;5.65;;
45296;SDS011;31040;51.622;10.420;2023-09-18T01:30:30;6.78;;;5.60;;
45296;SDS011;31040;51.622;10.420;2023-09-18T01:32:58;6.03;;;5.43;;
45296;SDS011;31040;51.622;10.420;2023-09-18T01:35:26;6.97;;;5.53;;
45296;SDS011;31040;51.622;10.420;2023-09-18T01:37:56;6.40;;;5.80;;
45296;SDS011;31040;51.622;10.420;2023-09-18T01:40:24;6.57;;;5.82;;
45296;SDS011;31040;51.622;10.420;2023-09-18T01:42:52;5.75;;;5.22;;
45296;SDS011;31040;51.622;10.420;2023-09-18T01:45:20;7.88;;;5.45;;
45296;SDS011;31040;51.622;10.420;2023-09-18T01:47:47;10.02;;;5.95;;
45296;SDS011;31040;51.622;10.420;2023-09-18T01:50:15;6.70;;;6.10;;
45296;SDS011;31040;51.622;10.420;2023-09-18T01:52:42;8.43;;;5.93;;
45296;SDS011;31040;51.622;10.420;2023-09-18T01:55:10;6.68;;;6.00;;
45296;SDS011;31040;51.622;10.420;2023-09-18T01:57:37;6.07;;;5.47;;
45296;SDS011;31040;51.622;10.420;2023-09-18T02:00:05;6.20;;;5.57;;
45296;SDS011;31040;51.622;10.420;2023-09-18T02:02:36;7.05;;;5.43;;
45296;SDS011;31040;51.622;10.420;2023-09-18T02:05:24;5.97;;;5.30;;
45296;SDS011;31040;51.622;10.420;2023-09-18T02:07:52;6.65;;;6.05;;
45296;SDS011;31040;51.622;10.420;2023-09-18T02:10:19;6.25;;;5.40;;
45296;SDS011;31040;51.622;10.420;2023-09-18T02:12:47;6.97;;;6.18;;
45296;SDS011;31040;51.622;10.420;2023-09-18T02:15:14;6.57;;;5.95;;
45296;SDS011;31040;51.622;10.420;2023-09-18T02:17:43;8.07;;;5.38;;
45296;SDS011;31040;51.622;10.420;2023-09-18T02:20:11;6.63;;;5.88;;
45296;SDS011;31040;51.622;10.420;2023-09-18T02:22:38;7.20;;;5.75;;
45296;SDS011;31040;51.622;10.420;2023-09-18T02:25:13;6.85;;;6.18;;
45296;SDS011;31040;51.622;10.420;2023-09-18T02:27:40;8.68;;;6.45;;
45296;SDS011;31040;51.622;10.420;2023-09-18T02:30:08;7.03;;;6.07;;
45296;SDS011;31040;51.622;10.420;2023-09-18T02:32:36;8.88;;;6.00;;
45296;SDS011;31040;51.622;10.420;2023-09-18T02:35:04;6.22;;;5.72;;
45296;SDS011;31040;51.622;10.420;2023-09-18T02:37:33;9.02;;;6.32;;
45296;SDS011;31040;51.622;10.420;2023-09-18T02:40:01;6.25;;;5.57;;
45296;SDS011;31040;51.622;10.420;2023-09-18T02:42:28;6.97;;;5.90;;
45296;SDS011;31040;51.622;10.420;2023-09-18T02:44:56;6.78;;;5.95;;
45296;SDS011;31040;51.622;10.420;2023-09-18T02:47:23;5.90;;;5.35;;
45296;SDS011;31040;51.622;10.420;2023-09-18T02:49:51;6.15;;;5.57;;
45296;SDS011;31040;51.622;10.420;2023-09-18T02:52:18;7.05;;;5.78;;
45296;SDS011;31040;51.622;10.420;2023-09-18T02:54:45;7.90;;;5.80;;
45296;SDS011;31040;51.622;10.420;2023-09-18T02:57:13;9.07;;;6.18;;
45296;SDS011;31040;51.622;10.420;2023-09-18T02:59:40;5.47;;;4.97;;
45296;SDS011;31040;51.622;10.420;2023-09-18T03:02:08;5.78;;;5.28;;
45296;SDS011;31040;51.622;10.420;2023-09-18T03:04:35;6.63;;;5.82;;
45296;SDS011;31040;51.622;10.420;2023-09-18T03:07:03;6.55;;;5.80;;
45296;SDS011;31040;51.622;10.420;2023-09-18T03:09:31;7.88;;;6.45;;
45296;SDS011;31040;51.622;10.420;2023-09-18T03:11:58;6.47;;;5.88;;
45296;SDS011;31040;51.622;10.420;2023-09-18T03:14:26;7.47;;;6.20;;
45296;SDS011;31040;51.622;10.420;2023-09-18T03:16:53;8.10;;;5.55;;
45296;SDS011;31040;51.622;10.420;2023-09-18T03:19:21;7.30;;;6.60;;
45296;SDS011;31040;51.622;10.420;2023-09-18T03:21:50;7.47;;;6.55;;
45296;SDS011;31040;51.622;10.420;2023-09-18T03:24:18;6.63;;;6.07;;
45296;SDS011;31040;51.622;10.420;2023-09-18T03:26:45;8.43;;;5.88;;
45296;SDS011;31040;51.622;10.420;2023-09-18T03:29:13;6.97;;;6.25;;
45296;SDS011;31040;51.622;10.420;2023-09-18T03:31:40;8.63;;;6.68;;
45296;SDS011;31040;51.622;10.420;2023-09-18T03:34:07;8.68;;;6.10;;
45296;SDS011;31040;51.622;10.420;2023-09-18T03:36:35;6.88;;;6.28;;
45296;SDS011;31040;51.622;10.420;2023-09-18T03:39:03;6.80;;;6.18;;
45296;SDS011;31040;51.622;10.420;2023-09-18T03:41:31;7.88;;;6.35;;
45296;SDS011;31040;51.622;10.420;2023-09-18T03:44:01;6.60;;;5.90;;
45296;SDS011;31040;51.622;10.420;2023-09-18T03:46:29;6.60;;;6.00;;
45296;SDS011;31040;51.622;10.420;2023-09-18T03:48:57;6.18;;;5.57;;
45296;SDS011;31040;51.622;10.420;2023-09-18T03:51:24;6.28;;;5.18;;
45296;SDS011;31040;51.622;10.420;2023-09-18T03:53:52;7.32;;;6.18;;
45296;SDS011;31040;51.622;10.420;2023-09-18T03:56:19;6.43;;;5.35;;
45296;SDS011;31040;51.622;10.420;2023-09-18T03:58:47;6.38;;;5.78;;
45296;SDS011;31040;51.622;10.420;2023-09-18T04:01:16;6.95;;;5.25;;
45296;SDS011;31040;51.622;10.420;2023-09-18T04:03:43;7.63;;;6.13;;
45296;SDS011;31040;51.622;10.420;2023-09-18T04:06:11;6.45;;;5.78;;
45296;SDS011;31040;51.622;10.420;2023-09-18T04:08:38;6.75;;;5.88;;
45296;SDS011;31040;51.622;10.420;2023-09-18T04:11:06;6.78;;;5.90;;
45296;SDS011;31040;51.622;10.420;2023-09-18T04:13:36;6.80;;;5.88;;
45296;SDS011;31040;51.622;10.420;2023-09-18T04:16:04;6.63;;;5.60;;
45296;SDS011;31040;51.622;10.420;2023-09-18T04:18:31;6.75;;;5.97;;
45296;SDS011;31040;51.622;10.420;2023-09-18T04:20:59;6.32;;;5.80;;
45296;SDS011;31040;51.622;10.420;2023-09-18T04:23:26;6.80;;;6.20;;
45296;SDS011;31040;51.622;10.420;2023-09-18T04:25:54;7.25;;;6.55;;
45296;SDS011;31040;51.622;10.420;2023-09-18T04:28:24;6.60;;;5.95;;
45296;SDS011;31040;51.622;10.420;2023-09-18T04:30:52;6.03;;;5.43;;
45296;SDS011;31040;51.622;10.420;2023-09-18T04:33:19;6.57;;;5.97;;
45296;SDS011;31040;51.622;10.420;2023-09-18T04:35:48;6.50;;;5.90;;
45296;SDS011;31040;51.622;10.420;2023-09-18T04:38:15;7.07;;;6.40;;
45296;SDS011;31040;51.622;10.420;2023-09-18T04:40:45;6.43;;;5.82;;
45296;SDS011;31040;51.622;10.420;2023-09-18T04:43:12;7.40;;;6.70;;
45296;SDS011;31040;51.622;10.420;2023-09-18T04:45:39;7.70;;;6.10;;
45296;SDS011;31040;51.622;10.420;2023-09-18T04:48:09;7.78;;;5.88;;
45296;SDS011;31040;51.622;10.420;2023-09-18T04:50:37;6.50;;;5.90;;
45296;SDS011;31040;51.622;10.420;2023-09-18T04:53:04;8.30;;;6.63;;
45296;SDS011;31040;51.622;10.420;2023-09-18T04:55:32;7.30;;;6.20;;
45296;SDS011;31040;51.622;10.420;2023-09-18T04:57:59;7.38;;;6.63;;
45296;SDS011;31040;51.622;10.420;2023-09-18T05:00:27;7.05;;;6.35;;
45296;SDS011;31040;51.622;10.420;2023-09-18T05:02:56;11.32;;;7.60;;
45296;SDS011;31040;51.622;10.420;2023-09-18T05:05:26;9.02;;;7.20;;
45296;SDS011;31040;51.622;10.420;2023-09-18T05:07:53;6.95;;;6.30;;
45296;SDS011;31040;51.622;10.420;2023-09-18T05:10:21;7.57;;;6.35;;
45296;SDS011;31040;51.622;10.420;2023-09-18T05:12:48;10.40;;;7.07;;
45296;SDS011;31040;51.622;10.420;2023-09-18T05:15:17;7.82;;;6.65;;
45296;SDS011;31040;51.622;10.420;2023-09-18T05:17:45;8.48;;;6.53;;
45296;SDS011;31040;51.622;10.420;2023-09-18T05:20:13;9.70;;;6.43;;
45296;SDS011;31040;51.622;10.420;2023-09-18T05:22:43;6.88;;;6.28;;
45296;SDS011;31040;51.622;10.420;2023-09-18T05:25:11;9.80;;;6.40;;
45296;SDS011;31040;51.622;10.420;2023-09-18T05:27:42;7.55;;;6.20;;
45296;SDS011;31040;51.622;10.420;2023-09-18T05:30:15;7.72;;;6.80;;
45296;SDS011;31040;51.622;10.420;2023-09-18T05:32:43;8.52;;;6.60;;
45296;SDS011;31040;51.622;10.420;2023-09-18T05:35:12;6.88;;;6.25;;
45296;SDS011;31040;51.622;10.420;2023-09-18T05:37:40;10.93;;;6.22;;
45296;SDS011;31040;51.622;10.420;2023-09-18T05:40:09;8.95;;;7.05;;
45296;SDS011;31040;51.622;10.420;2023-09-18T05:42:37;7.35;;;6.65;;
45296;SDS011;31040;51.622;10.420;2023-09-18T05:45:05;6.82;;;6.13;;
45296;SDS011;31040;51.622;10.420;2023-09-18T05:47:33;7.60;;;6.80;;
45296;SDS011;31040;51.622;10.420;2023-09-18T05:50:02;6.97;;;5.97;;
45296;SDS011;31040;51.622;10.420;2023-09-18T05:52:33;8.73;;;6.15;;
45296;SDS011;31040;51.622;10.420;2023-09-18T05:55:04;7.53;;;6.82;;
45296;SDS011;31040;51.622;10.420;2023-09-18T05:57:33;6.88;;;5.75;;
45296;SDS011;31040;51.622;10.420;2023-09-18T06:00:01;14.55;;;6.65;;
45296;SDS011;31040;51.622;10.420;2023-09-18T06:02:29;6.18;;;5.57;;
45296;SDS011;31040;51.622;10.420;2023-09-18T06:04:59;8.27;;;5.82;;
45296;SDS011;31040;51.622;10.420;2023-09-18T06:07:27;6.50;;;5.90;;
45296;SDS011;31040;51.622;10.420;2023-09-18T06:09:54;7.38;;;6.03;;
45296;SDS011;31040;51.622;10.420;2023-09-18T06:12:22;6.55;;;5.63;;
45296;SDS011;31040;51.622;10.420;2023-09-18T06:14:49;6.15;;;5.60;;
45296;SDS011;31040;51.622;10.420;2023-09-18T06:17:17;8.15;;;5.85;;
45296;SDS011;31040;51.622;10.420;2023-09-18T06:19:45;6.07;;;5.53;;
45296;SDS011;31040;51.622;10.420;2023-09-18T06:22:12;6.80;;;5.28;;
45296;SDS011;31040;51.622;10.420;2023-09-18T06:24:40;8.90;;;5.60;;
45296;SDS011;31040;51.622;10.420;2023-09-18T06:27:08;6.85;;;5.20;;
45296;SDS011;31040;51.622;10.420;2023-09-18T06:29:35;6.18;;;5.57;;
45296;SDS011;31040;51.622;10.420;2023-09-18T06:32:05;10.18;;;5.82;;
45296;SDS011;31040;51.622;10.420;2023-09-18T06:34:33;6.05;;;5.20;;
45296;SDS011;31040;51.622;10.420;2023-09-18T06:37:00;7.57;;;5.28;;
45296;SDS011;31040;51.622;10.420;2023-09-18T06:39:30;8.23;;;5.38;;
45296;SDS011;31040;51.622;10.420;2023-09-18T06:41:57;6.53;;;5.63;;
45296;SDS011;31040;51.622;10.420;2023-09-18T06:44:24;5.93;;;5.43;;
45296;SDS011;31040;51.622;10.420;2023-09-18T06:46:52;5.50;;;5.00;;
45296;SDS011;31040;51.622;10.420;2023-09-18T06:49:20;5.13;;;4.68;;
45296;SDS011;31040;51.622;10.420;2023-09-18T06:51:47;8.15;;;5.38;;
45296;SDS011;31040;51.622;10.420;2023-09-18T06:54:14;5.40;;;4.95;;
45296;SDS011;31040;51.622;10.420;2023-09-18T06:56:42;5.50;;;5.00;;
45296;SDS011;31040;51.622;10.420;2023-09-18T06:59:11;7.88;;;5.35;;
45296;SDS011;31040;51.622;10.420;2023-09-18T07:01:39;5.93;;;4.97;;
45296;SDS011;31040;51.622;10.420;2023-09-18T07:04:08;5.15;;;4.75;;
45296;SDS011;31040;51.622;10.420;2023-09-18T07:06:36;5.72;;;4.85;;
45296;SDS011;31040;51.622;10.420;2023-09-18T07:09:04;5.35;;;4.85;;
45296;SDS011;31040;51.622;10.420;2023-09-18T07:11:33;11.38;;;4.78;;
45296;SDS011;31040;51.622;10.420;2023-09-18T07:14:01;5.28;;;4.43;;
45296;SDS011;31040;51.622;10.420;2023-09-18T07:16:32;5.30;;;4.75;;
45296;SDS011;31040;51.622;10.420;2023-09-18T07:19:00;5.68;;;4.45;;
45296;SDS011;31040;51.622;10.420;2023-09-18T07:21:31;5.05;;;4.65;;
45296;SDS011;31040;51.622;10.420;2023-09-18T07:23:58;6.25;;;4.75;;
45296;SDS011;31040;51.622;10.420;2023-09-18T07:26:26;12.52;;;5.25;;
45296;SDS011;31040;51.622;10.420;2023-09-18T07:28:53;4.82;;;4.32;;
45296;SDS011;31040;51.622;10.420;2023-09-18T07:31:21;5.35;;;4.85;;
45296;SDS011;31040;51.622;10.420;2023-09-18T07:33:49;4.70;;;4.28;;
45296;SDS011;31040;51.622;10.420;2023-09-18T07:36:16;5.38;;;4.80;;
45296;SDS011;31040;51.622;10.420;2023-09-18T07:38:44;6.65;;;5.50;;
45296;SDS011;31040;51.622;10.420;2023-09-18T07:41:12;5.72;;;5.10;;
45296;SDS011;31040;51.622;10.420;2023-09-18T07:43:42;5.15;;;4.65;;
45296;SDS011;31040;51.622;10.420;2023-09-18T07:46:09;5.75;;;5.25;;
45296;SDS011;31040;51.622;10.420;2023-09-18T07:48:36;5.47;;;4.97;;
45296;SDS011;31040;51.622;10.420;2023-09-18T07:51:04;7.60;;;5.30;;
45296;SDS011;31040;51.622;10.420;2023-09-18T07:53:31;5.65;;;5.05;;
45296;SDS011;31040;51.622;10.420;2023-09-18T07:55:59;5.63;;;4.97;;
45296;SDS011;31040;51.622;10.420;2023-09-18T07:58:32;5.13;;;4.72;;
45296;SDS011;31040;51.622;10.420;2023-09-18T08:01:00;5.65;;;4.43;;
45296;SDS011;31040;51.622;10.420;2023-09-18T08:03:32;4.97;;;4.57;;
45296;SDS011;31040;51.622;10.420;2023-09-18T08:05:59;4.82;;;4.40;;
45296;SDS011;31040;51.622;10.420;2023-09-18T08:08:27;5.70;;;5.15;;
45296;SDS011;31040;51.622;10.420;2023-09-18T08:10:57;6.57;;;4.97;;
45296;SDS011;31040;51.622;10.420;2023-09-18T08:13:28;6.57;;;4.70;;
45296;SDS011;31040;51.622;10.420;2023-09-18T08:15:55;5.15;;;4.60;;
45296;SDS011;31040;51.622;10.420;2023-09-18T08:18:23;4.97;;;4.53;;
45296;SDS011;31040;51.622;10.420;2023-09-18T08:20:53;4.97;;;4.50;;
45296;SDS011;31040;51.622;10.420;2023-09-18T08:23:21;4.60;;;4.20;;
45296;SDS011;31040;51.622;10.420;2023-09-18T08:25:48;5.13;;;4.32;;
45296;SDS011;31040;51.622;10.420;2023-09-18T08:28:17;5.60;;;4.25;;
45296;SDS011;31040;51.622;10.420;2023-09-18T08:30:45;4.95;;;4.32;;
45296;SDS011;31040;51.622;10.420;2023-09-18T08:33:14;5.25;;;4.05;;
45296;SDS011;31040;51.622;10.420;2023-09-18T08:35:41;6.05;;;4.28;;
45296;SDS011;31040;51.622;10.420;2023-09-18T08:38:10;5.28;;;4.78;;
45296;SDS011;31040;51.622;10.420;2023-09-18T08:40:39;6.35;;;4.47;;
45296;SDS011;31040;51.622;10.420;2023-09-18T08:43:07;6.10;;;4.18;;
45296;SDS011;31040;51.622;10.420;2023-09-18T08:48:02;4.88;;;4.38;;
45296;SDS011;31040;51.622;10.420;2023-09-18T08:50:30;7.35;;;4.18;;
45296;SDS011;31040;51.622;10.420;2023-09-18T08:52:58;6.53;;;4.85;;
45296;SDS011;31040;51.622;10.420;2023-09-18T08:55:31;4.75;;;4.18;;
45296;SDS011;31040;51.622;10.420;2023-09-18T08:58:00;5.25;;;4.75;;
45296;SDS011;31040;51.622;10.420;2023-09-18T09:00:27;6.47;;;4.70;;
45296;SDS011;31040;51.622;10.420;2023-09-18T09:02:55;6.65;;;4.75;;
45296;SDS011;31040;51.622;10.420;2023-09-18T09:05:23;4.30;;;3.88;;
45296;SDS011;31040;51.622;10.420;2023-09-18T09:07:51;7.85;;;4.47;;
45296;SDS011;31040;51.622;10.420;2023-09-18T09:10:18;10.20;;;5.18;;
45296;SDS011;31040;51.622;10.420;2023-09-18T09:12:53;6.72;;;4.50;;
45296;SDS011;31040;51.622;10.420;2023-09-18T09:15:21;5.32;;;4.32;;
45296;SDS011;31040;51.622;10.420;2023-09-18T09:17:49;5.82;;;5.00;;
45296;SDS011;31040;51.622;10.420;2023-09-18T09:20:17;6.97;;;4.40;;
45296;SDS011;31040;51.622;10.420;2023-09-18T09:22:47;5.50;;;4.60;;
45296;SDS011;31040;51.622;10.420;2023-09-18T09:27:53;5.65;;;4.95;;
45296;SDS011;31040;51.622;10.420;2023-09-18T09:30:22;8.43;;;5.07;;
45296;SDS011;31040;51.622;10.420;2023-09-18T09:32:51;6.55;;;4.35;;
45296;SDS011;31040;51.622;10.420;2023-09-18T09:38:02;6.43;;;3.80;;
45296;SDS011;31040;51.622;10.420;2023-09-18T09:40:35;6.00;;;4.57;;
45296;SDS011;31040;51.622;10.420;2023-09-18T09:43:03;6.35;;;4.20;;
45296;SDS011;31040;51.622;10.420;2023-09-18T09:45:31;4.82;;;4.43;;
45296;SDS011;31040;51.622;10.420;2023-09-18T09:48:03;4.60;;;4.15;;
45296;SDS011;31040;51.622;10.420;2023-09-18T09:50:33;8.40;;;4.55;;
45296;SDS011;31040;51.622;10.420;2023-09-18T09:53:01;6.18;;;4.45;;
45296;SDS011;31040;51.622;10.420;2023-09-18T09:55:32;6.18;;;4.30;;
45296;SDS011;31040;51.622;10.420;2023-09-18T09:58:04;4.57;;;4.18;;
45296;SDS011;31040;51.622;10.420;2023-09-18T10:00:33;6.22;;;4.18;;
45296;SDS011;31040;51.622;10.420;2023-09-18T10:03:07;4.88;;;4.00;;
45296;SDS011;31040;51.622;10.420;2023-09-18T10:05:36;8.30;;;3.88;;
45296;SDS011;31040;51.622;10.420;2023-09-18T10:10:36;6.25;;;3.45;;
45296;SDS011;31040;51.622;10.420;2023-09-18T10:13:05;3.80;;;2.65;;
45296;SDS011;31040;51.622;10.420;2023-09-18T10:15:34;6.93;;;3.30;;
45296;SDS011;31040;51.622;10.420;2023-09-18T10:18:05;6.50;;;2.70;;
45296;SDS011;31040;51.622;10.420;2023-09-18T10:20:36;5.03;;;2.25;;
45296;SDS011;31040;51.622;10.420;2023-09-18T10:23:04;5.22;;;2.28;;
45296;SDS011;31040;51.622;10.420;2023-09-18T10:25:35;4.25;;;2.33;;
45296;SDS011;31040;51.622;10.420;2023-09-18T10:28:03;5.93;;;2.20;;
45296;SDS011;31040;51.622;10.420;2023-09-18T10:30:33;4.40;;;2.15;;
45296;SDS011;31040;51.622;10.420;2023-09-18T10:33:03;4.28;;;2.78;;
45296;SDS011;31040;51.622;10.420;2023-09-18T10:35:34;3.90;;;2.10;;
45296;SDS011;31040;51.622;10.420;2023-09-18T10:38:02;3.55;;;2.63;;
45296;SDS011;31040;51.622;10.420;2023-09-18T10:40:32;4.32;;;2.40;;
45296;SDS011;31040;51.622;10.420;2023-09-18T10:43:02;2.47;;;2.10;;
45296;SDS011;31040;51.622;10.420;2023-09-18T10:45:30;4.13;;;1.88;;
45296;SDS011;31040;51.622;10.420;2023-09-18T10:47:57;6.60;;;1.95;;
45296;SDS011;31040;51.622;10.420;2023-09-18T10:50:26;4.78;;;2.00;;
45296;SDS011;31040;51.622;10.420;2023-09-18T10:52:54;4.65;;;2.10;;
45296;SDS011;31040;51.622;10.420;2023-09-18T10:55:25;4.88;;;2.13;;
45296;SDS011;31040;51.622;10.420;2023-09-18T10:57:53;4.40;;;2.10;;
45296;SDS011;31040;51.622;10.420;2023-09-18T11:00:21;6.88;;;1.92;;
45296;SDS011;31040;51.622;10.420;2023-09-18T11:02:51;4.63;;;2.00;;
45296;SDS011;31040;51.622;10.420;2023-09-18T11:05:28;3.35;;;1.75;;
45296;SDS011;31040;51.622;10.420;2023-09-18T11:10:54;10.18;;;2.42;;
45296;SDS011;31040;51.622;10.420;2023-09-18T11:13:28;7.35;;;2.28;;
45296;SDS011;31040;51.622;10.420;2023-09-18T11:18:51;7.53;;;2.25;;
45296;SDS011;31040;51.622;10.420;2023-09-18T11:21:23;3.00;;;1.80;;
45296;SDS011;31040;51.622;10.420;2023-09-18T11:23:57;8.45;;;2.55;;
45296;SDS011;31040;51.622;10.420;2023-09-18T11:26:32;6.00;;;2.30;;
45296;SDS011;31040;51.622;10.420;2023-09-18T11:31:44;7.63;;;1.80;;
45296;SDS011;31040;51.622;10.420;2023-09-18T11:34:15;5.95;;;2.22;;
45296;SDS011;31040;51.622;10.420;2023-09-18T11:36:43;5.88;;;2.35;;
45296;SDS011;31040;51.622;10.420;2023-09-18T11:39:11;5.82;;;1.63;;
45296;SDS011;31040;51.622;10.420;2023-09-18T11:41:39;3.33;;;1.40;;
45296;SDS011;31040;51.622;10.420;2023-09-18T11:46:41;3.90;;;1.58;;
45296;SDS011;31040;51.622;10.420;2023-09-18T11:49:12;6.15;;;1.50;;
45296;SDS011;31040;51.622;10.420;2023-09-18T11:51:39;3.83;;;1.48;;
45296;SDS011;31040;51.622;10.420;2023-09-18T11:54:07;5.38;;;2.00;;
45296;SDS011;31040;51.622;10.420;2023-09-18T11:56:35;7.57;;;2.15;;
45296;SDS011;31040;51.622;10.420;2023-09-18T11:59:02;7.85;;;1.67;;
45296;SDS011;31040;51.622;10.420;2023-09-18T12:01:31;2.60;;;1.80;;
45296;SDS011;31040;51.622;10.420;2023-09-18T12:04:06;7.13;;;2.55;;
45296;SDS011;31040;51.622;10.420;2023-09-18T12:09:08;3.03;;;1.90;;
45296;SDS011;31040;51.622;10.420;2023-09-18T12:11:35;4.38;;;1.67;;
45296;SDS011;31040;51.622;10.420;2023-09-18T12:14:08;5.43;;;1.92;;
45296;SDS011;31040;51.622;10.420;2023-09-18T12:16:39;4.88;;;2.05;;
45296;SDS011;31040;51.622;10.420;2023-09-18T12:19:07;5.38;;;2.28;;
45296;SDS011;31040;51.622;10.420;2023-09-18T12:21:40;8.00;;;2.30;;
45296;SDS011;31040;51.622;10.420;2023-09-18T12:24:24;7.18;;;2.50;;
45296;SDS011;31040;51.622;10.420;2023-09-18T12:26:52;5.15;;;1.70;;
45296;SDS011;31040;51.622;10.420;2023-09-18T12:29:21;6.72;;;2.13;;
45296;SDS011;31040;51.622;10.420;2023-09-18T12:31:48;4.18;;;2.03;;
45296;SDS011;31040;51.622;10.420;2023-09-18T12:34:19;6.57;;;2.25;;
45296;SDS011;31040;51.622;10.420;2023-09-18T12:36:50;4.47;;;2.00;;
45296;SDS011;31040;51.622;10.420;2023-09-18T12:39:18;3.67;;;1.70;;
45296;SDS011;31040;51.622;10.420;2023-09-18T12:41:46;5.40;;;2.10;;
45296;SDS011;31040;51.622;10.420;2023-09-18T12:44:14;3.28;;;2.13;;
45296;SDS011;31040;51.622;10.420;2023-09-18T12:46:43;6.95;;;2.25;;
45296;SDS011;31040;51.622;10.420;2023-09-18T12:49:20;7.18;;;2.70;;
45296;SDS011;31040;51.622;10.420;2023-09-18T12:51:58;5.22;;;2.30;;
45296;SDS011;31040;51.622;10.420;2023-09-18T12:57:06;8.55;;;2.63;;
45296;SDS011;31040;51.622;10.420;2023-09-18T12:59:35;4.63;;;2.20;;
45296;SDS011;31040;51.622;10.420;2023-09-18T13:02:05;7.60;;;2.15;;
45296;SDS011;31040;51.622;10.420;2023-09-18T13:04:34;5.47;;;2.67;;
45296;SDS011;31040;51.622;10.420;2023-09-18T13:07:09;3.87;;;1.93;;
45296;SDS011;31040;51.622;10.420;2023-09-18T13:09:37;4.90;;;2.00;;
45296;SDS011;31040;51.622;10.420;2023-09-18T13:12:04;5.57;;;2.60;;
45296;SDS011;31040;51.622;10.420;2023-09-18T13:17:18;5.28;;;2.60;;
45296;SDS011;31040;51.622;10.420;2023-09-18T13:19:46;5.50;;;2.25;;
45296;SDS011;31040;51.622;10.420;2023-09-18T13:22:21;4.82;;;1.92;;
45296;SDS011;31040;51.622;10.420;2023-09-18T13:24:49;5.70;;;2.35;;
45296;SDS011;31040;51.622;10.420;2023-09-18T13:27:22;2.90;;;2.13;;
45296;SDS011;31040;51.622;10.420;2023-09-18T13:29:51;3.05;;;1.80;;
45296;SDS011;31040;51.622;10.420;2023-09-18T13:32:18;8.48;;;2.72;;
45296;SDS011;31040;51.622;10.420;2023-09-18T13:34:46;6.53;;;2.55;;
45296;SDS011;31040;51.622;10.420;2023-09-18T13:37:13;7.47;;;2.67;;
45296;SDS011;31040;51.622;10.420;2023-09-18T13:39:43;5.72;;;2.05;;
45296;SDS011;31040;51.622;10.420;2023-09-18T13:42:12;5.07;;;1.88;;
45296;SDS011;31040;51.622;10.420;2023-09-18T13:44:39;3.97;;;2.15;;
45296;SDS011;31040;51.622;10.420;2023-09-18T13:47:07;7.90;;;2.75;;
45296;SDS011;31040;51.622;10.420;2023-09-18T13:49:34;8.43;;;3.13;;
45296;SDS011;31040;51.622;10.420;2023-09-18T13:52:02;3.92;;;2.08;;
45296;SDS011;31040;51.622;10.420;2023-09-18T13:54:30;7.22;;;2.20;;
45296;SDS011;31040;51.622;10.420;2023-09-18T13:56:57;9.35;;;2.42;;
45296;SDS011;31040;51.622;10.420;2023-09-18T13:59:25;3.42;;;2.20;;
45296;SDS011;31040;51.622;10.420;2023-09-18T14:01:52;4.15;;;1.95;;
45296;SDS011;31040;51.622;10.420;2023-09-18T14:04:21;6.70;;;2.28;;
45296;SDS011;31040;51.622;10.420;2023-09-18T14:06:49;4.43;;;2.50;;
45296;SDS011;31040;51.622;10.420;2023-09-18T14:09:16;6.18;;;2.40;;
45296;SDS011;31040;51.622;10.420;2023-09-18T14:11:43;5.85;;;2.55;;
45296;SDS011;31040;51.622;10.420;2023-09-18T14:14:11;2.70;;;1.85;;
45296;SDS011;31040;51.622;10.420;2023-09-18T14:16:39;8.80;;;2.60;;
45296;SDS011;31040;51.622;10.420;2023-09-18T14:19:06;5.35;;;2.10;;
45296;SDS011;31040;51.622;10.420;2023-09-18T14:21:37;6.07;;;2.25;;
45296;SDS011;31040;51.622;10.420;2023-09-18T14:24:06;4.25;;;1.85;;
45296;SDS011;31040;51.622;10.420;2023-09-18T14:26:35;3.15;;;1.88;;
45296;SDS011;31040;51.622;10.420;2023-09-18T14:29:07;5.90;;;2.60;;
45296;SDS011;31040;51.622;10.420;2023-09-18T14:31:38;4.00;;;2.22;;
45296;SDS011;31040;51.622;10.420;2023-09-18T14:34:05;3.97;;;2.45;;
45296;SDS011;31040;51.622;10.420;2023-09-18T14:36:33;4.30;;;2.25;;
45296;SDS011;31040;51.622;10.420;2023-09-18T14:39:03;8.02;;;1.95;;
45296;SDS011;31040;51.622;10.420;2023-09-18T14:41:31;5.40;;;2.08;;
45296;SDS011;31040;51.622;10.420;2023-09-18T14:43:58;5.05;;;2.40;;
45296;SDS011;31040;51.622;10.420;2023-09-18T14:46:26;5.68;;;2.65;;
45296;SDS011;31040;51.622;10.420;2023-09-18T14:48:53;5.15;;;2.50;;
45296;SDS011;31040;51.622;10.420;2023-09-18T14:51:21;13.10;;;2.90;;
45296;SDS011;31040;51.622;10.420;2023-09-18T14:53:48;7.50;;;2.58;;
45296;SDS011;31040;51.622;10.420;2023-09-18T14:56:16;4.43;;;2.10;;
45296;SDS011;31040;51.622;10.420;2023-09-18T14:58:43;4.43;;;2.00;;
45296;SDS011;31040;51.622;10.420;2023-09-18T15:01:11;4.72;;;2.30;;
45296;SDS011;31040;51.622;10.420;2023-09-18T15:03:41;2.85;;;1.88;;
45296;SDS011;31040;51.622;10.420;2023-09-18T15:06:08;3.40;;;1.58;;
45296;SDS011;31040;51.622;10.420;2023-09-18T15:08:36;3.85;;;2.17;;
45296;SDS011;31040;51.622;10.420;2023-09-18T15:11:04;3.22;;;1.90;;